Observation data for Clarendon on 10/13/2019      Previous  Date       Current Mesonet Observations  Soil Data  Daily Summary Page  Observations in Plain Language
KCES 130500Z 19011KT 11/M04 A2997 RMK A01 T01141038  RH  034%=      5-min Rain = 0
KCES 130505Z 18011KT 11/M04 A2997 RMK A01 T01141038  RH  034%=      5-min Rain = 0
KCES 130510Z 19011KT 11/M04 A2997 RMK A01 T01131039  RH  035%=      5-min Rain = 0
KCES 130515Z 19010KT 11/M04 A2996 RMK A01 T01121039  RH  035%=      5-min Rain = 0
KCES 130520Z 19009KT 11/M04 A2996 RMK A01 T01101038  RH  035%=      5-min Rain = 0
KCES 130525Z 19009KT 11/M04 A2996 RMK A01 T01081038  RH  036%=      5-min Rain = 0
KCES 130530Z 18008KT 11/M04 A2996 RMK A01 T01081038  RH  036%=      5-min Rain = 0
KCES 130535Z 18007KT 11/M04 A2996 RMK A01 T01071038  RH  036%=      5-min Rain = 0
KCES 130540Z 18006KT 11/M04 A2996 RMK A01 T01071039  RH  036%=      5-min Rain = 0
KCES 130545Z 17006KT 11/M04 A2997 RMK A01 T01061039  RH  036%=      5-min Rain = 0
KCES 130550Z 17005KT 11/M04 A2997 RMK A01 T01051039  RH  036%=      5-min Rain = 0
KCES 130555Z 16003KT 10/M04 A2997 RMK A01 T01031038  RH  037%=      5-min Rain = 0
KCES 130600Z 07001KT 10/M03 A2997 RMK A01 T00951031  RH  041%=      5-min Rain = 0
KCES 130605Z 11002KT 09/M03 A2997 RMK A01 T00901034  RH  042%=      5-min Rain = 0
KCES 130610Z 15003KT 10/M04 A2997 RMK A01 T00961037  RH  039%=      5-min Rain = 0
KCES 130615Z 16004KT 09/M03 A2997 RMK A01 T00921030  RH  043%=      5-min Rain = 0
KCES 130620Z 18004KT 08/M03 A2997 RMK A01 T00801028  RH  047%=      5-min Rain = 0
KCES 130625Z 20003KT 07/M03 A2997 RMK A01 T00731029  RH  049%=      5-min Rain = 0
KCES 130630Z 18003KT 07/M03 A2997 RMK A01 T00711029  RH  049%=      5-min Rain = 0
KCES 130635Z 18004KT 07/M03 A2997 RMK A01 T00701029  RH  050%=      5-min Rain = 0
KCES 130640Z 18006KT 07/M03 A2997 RMK A01 T00721028  RH  050%=      5-min Rain = 0
KCES 130645Z 18006KT 07/M03 A2996 RMK A01 T00711027  RH  050%=      5-min Rain = 0
KCES 130650Z 18005KT 07/M03 A2996 RMK A01 T00691025  RH  052%=      5-min Rain = 0
KCES 130655Z 18005KT 07/M02 A2996 RMK A01 T00681024  RH  053%=      5-min Rain = 0
KCES 130700Z 18005KT 07/M02 A2996 RMK A01 T00661024  RH  053%=      5-min Rain = 0
KCES 130705Z 18004KT 06/M02 A2996 RMK A01 T00641024  RH  054%=      5-min Rain = 0
KCES 130710Z 18004KT 06/M02 A2996 RMK A01 T00631024  RH  054%=      5-min Rain = 0
KCES 130715Z 18004KT 07/M03 A2996 RMK A01 T00681028  RH  051%=      5-min Rain = 0
KCES 130720Z 18004KT 07/M03 A2996 RMK A01 T00721028  RH  049%=      5-min Rain = 0
KCES 130725Z 18005KT 07/M03 A2995 RMK A01 T00681025  RH  052%=      5-min Rain = 0
KCES 130730Z 19006KT 07/M02 A2995 RMK A01 T00661023  RH  053%=      5-min Rain = 0
KCES 130735Z 19008KT 07/M02 A2995 RMK A01 T00651019  RH  055%=      5-min Rain = 0
KCES 130740Z 20008KT 07/M02 A2995 RMK A01 T00661020  RH  055%=      5-min Rain = 0
KCES 130745Z 20008KT 08/M03 A2995 RMK A01 T00781026  RH  048%=      5-min Rain = 0
KCES 130750Z 20008KT 09/M03 A2995 RMK A01 T00871027  RH  045%=      5-min Rain = 0
KCES 130755Z 20008KT 09/M03 A2995 RMK A01 T00921027  RH  043%=      5-min Rain = 0
KCES 130800Z 20008KT 10/M03 A2995 RMK A01 T00961028  RH  042%=      5-min Rain = 0
KCES 130805Z 20006KT 10/M03 A2995 RMK A01 T00961029  RH  042%=      5-min Rain = 0
KCES 130810Z 19006KT 10/M03 A2995 RMK A01 T00951030  RH  042%=      5-min Rain = 0
KCES 130815Z 19005KT 09/M03 A2995 RMK A01 T00931032  RH  041%=      5-min Rain = 0
KCES 130820Z 18004KT 09/M03 A2995 RMK A01 T00911032  RH  042%=      5-min Rain = 0
KCES 130825Z 16004KT 09/M03 A2995 RMK A01 T00881031  RH  044%=      5-min Rain = 0
KCES 130830Z 13003KT 08/M03 A2995 RMK A01 T00821027  RH  047%=      5-min Rain = 0
KCES 130835Z 14003KT 08/M03 A2995 RMK A01 T00781027  RH  048%=      5-min Rain = 0
KCES 130840Z 16005KT 07/M03 A2995 RMK A01 T00741025  RH  050%=      5-min Rain = 0
KCES 130845Z 17004KT 07/M02 A2995 RMK A01 T00711024  RH  051%=      5-min Rain = 0
KCES 130850Z 17004KT 07/M02 A2995 RMK A01 T00681023  RH  053%=      5-min Rain = 0
KCES 130855Z 18004KT 07/M02 A2994 RMK A01 T00671022  RH  054%=      5-min Rain = 0
KCES 130900Z 17002KT 06/M02 A2994 RMK A01 T00641021  RH  055%=      5-min Rain = 0
KCES 130905Z 17001KT 06/M02 A2994 RMK A01 T00611022  RH  056%=      5-min Rain = 0
KCES 130910Z 18002KT 06/M02 A2994 RMK A01 T00631023  RH  055%=      5-min Rain = 0
KCES 130915Z 17001KT 06/M02 A2994 RMK A01 T00631020  RH  056%=      5-min Rain = 0
KCES 130920Z 18003KT 07/M02 A2994 RMK A01 T00671024  RH  053%=      5-min Rain = 0
KCES 130925Z 19004KT 07/M02 A2994 RMK A01 T00701022  RH  053%=      5-min Rain = 0
KCES 130930Z 19003KT 07/M02 A2994 RMK A01 T00661019  RH  055%=      5-min Rain = 0
KCES 130935Z 19004KT 06/M02 A2993 RMK A01 T00621021  RH  055%=      5-min Rain = 0
KCES 130940Z 19004KT 06/M02 A2993 RMK A01 T00621022  RH  055%=      5-min Rain = 0
KCES 130945Z 20003KT 06/M02 A2993 RMK A01 T00631021  RH  055%=      5-min Rain = 0
KCES 130950Z 17001KT 06/M02 A2993 RMK A01 T00601016  RH  058%=      5-min Rain = 0
KCES 130955Z 12001KT 06/M02 A2993 RMK A01 T00561017  RH  060%=      5-min Rain = 0
KCES 131000Z 18004KT 06/M02 A2993 RMK A01 T00631019  RH  056%=      5-min Rain = 0
KCES 131005Z 19006KT 07/M02 A2993 RMK A01 T00691020  RH  053%=      5-min Rain = 0
KCES 131010Z 19006KT 07/M02 A2993 RMK A01 T00671020  RH  054%=      5-min Rain = 0
KCES 131015Z 18006KT 07/M02 A2993 RMK A01 T00661020  RH  055%=      5-min Rain = 0
KCES 131020Z 18007KT 07/M02 A2992 RMK A01 T00691019  RH  054%=      5-min Rain = 0
KCES 131025Z 19006KT 07/M02 A2992 RMK A01 T00711019  RH  053%=      5-min Rain = 0
KCES 131030Z 19005KT 07/M02 A2992 RMK A01 T00701020  RH  053%=      5-min Rain = 0
KCES 131035Z 19005KT 07/M02 A2992 RMK A01 T00701022  RH  052%=      5-min Rain = 0
KCES 131040Z 19004KT 07/M02 A2992 RMK A01 T00711023  RH  051%=      5-min Rain = 0
KCES 131045Z 18004KT 07/M02 A2992 RMK A01 T00711024  RH  051%=      5-min Rain = 0
KCES 131050Z 18003KT 07/M02 A2992 RMK A01 T00711024  RH  051%=      5-min Rain = 0
KCES 131055Z 17002KT 07/M02 A2992 RMK A01 T00701024  RH  051%=      5-min Rain = 0
KCES 131100Z 16001KT 07/M02 A2993 RMK A01 T00701017  RH  054%=      5-min Rain = 0
KCES 131105Z 14001KT 07/M02 A2993 RMK A01 T00691019  RH  054%=      5-min Rain = 0
KCES 131110Z 16004KT 08/M02 A2993 RMK A01 T00751021  RH  051%=      5-min Rain = 0
KCES 131115Z 18007KT 07/M01 A2992 RMK A01 T00691013  RH  056%=      5-min Rain = 0
KCES 131120Z 18007KT 06/M01 A2992 RMK A01 T00601014  RH  060%=      5-min Rain = 0
KCES 131125Z 17007KT 06/M01 A2992 RMK A01 T00601013  RH  060%=      5-min Rain = 0
KCES 131130Z 17007KT 06/M01 A2992 RMK A01 T00611014  RH  059%=      5-min Rain = 0
KCES 131135Z 17006KT 06/M01 A2992 RMK A01 T00601014  RH  060%=      5-min Rain = 0
KCES 131140Z 18006KT 06/M01 A2992 RMK A01 T00591014  RH  060%=      5-min Rain = 0
KCES 131145Z 18007KT 06/M01 A2992 RMK A01 T00631013  RH  059%=      5-min Rain = 0
KCES 131150Z 17004KT 07/M01 A2992 RMK A01 T00681013  RH  056%=      5-min Rain = 0
KCES 131155Z 13002KT 07/M01 A2992 RMK A01 T00661012  RH  058%=      5-min Rain = 0
KCES 131200Z 16005KT 07/M01 A2992 RMK A01 T00681012  RH  057%=      5-min Rain = 0
KCES 131205Z 16005KT 07/M01 A2992 RMK A01 T00691010  RH  058%=      5-min Rain = 0
KCES 131210Z 15003KT 07/M01 A2992 RMK A01 T00661010  RH  059%=      5-min Rain = 0
KCES 131215Z 15002KT 06/M01 A2992 RMK A01 T00631011  RH  060%=      5-min Rain = 0
KCES 131220Z 18003KT 07/M01 A2992 RMK A01 T00651011  RH  059%=      5-min Rain = 0
KCES 131225Z 18005KT 06/M01 A2992 RMK A01 T00601009  RH  062%=      5-min Rain = 0
KCES 131230Z 17003KT 05/M01 A2992 RMK A01 T00541008  RH  065%=      5-min Rain = 0
KCES 131235Z 17002KT 05/M01 A2992 RMK A01 T00511007  RH  067%=      5-min Rain = 0
KCES 131240Z 17001KT 05/M01 A2993 RMK A01 T00521007  RH  066%=      5-min Rain = 0
KCES 131245Z 18001KT 05/M01 A2993 RMK A01 T00511007  RH  067%=      5-min Rain = 0
KCES 131250Z 18001KT 05/M01 A2993 RMK A01 T00521008  RH  066%=      5-min Rain = 0
KCES 131255Z 17001KT 06/M01 A2993 RMK A01 T00551008  RH  065%=      5-min Rain = 0
KCES 131300Z 17001KT 05/M01 A2993 RMK A01 T00541006  RH  066%=      5-min Rain = 0
KCES 131305Z 19001KT 05/M01 A2993 RMK A01 T00481006  RH  068%=      5-min Rain = 0
KCES 131310Z 01001KT 05/M01 A2993 RMK A01 T00471005  RH  070%=      5-min Rain = 0
KCES 131315Z 01004KT 05/M00 A2993 RMK A01 T00481001  RH  071%=      5-min Rain = 0
KCES 131320Z 01003KT 05/00 A2993 RMK A01 T00490003  RH  073%=      5-min Rain = 0
KCES 131325Z 02003KT 05/01 A2994 RMK A01 T00530005  RH  072%=      5-min Rain = 0
KCES 131330Z 03002KT 06/01 A2994 RMK A01 T00580008  RH  071%=      5-min Rain = 0
KCES 131335Z 03003KT 06/01 A2994 RMK A01 T00620009  RH  070%=      5-min Rain = 0
KCES 131340Z 03002KT 07/01 A2994 RMK A01 T00670010  RH  068%=      5-min Rain = 0
KCES 131345Z 03003KT 07/01 A2995 RMK A01 T00710009  RH  065%=      5-min Rain = 0
KCES 131350Z 03003KT 08/01 A2995 RMK A01 T00750010  RH  064%=      5-min Rain = 0
KCES 131355Z 03002KT 08/01 A2995 RMK A01 T00800012  RH  063%=      5-min Rain = 0
KCES 131400Z 03001KT 09/01 A2995 RMK A01 T00860010  RH  060%=      5-min Rain = 0
KCES 131405Z 18000KT 09/01 A2995 RMK A01 T00910009  RH  057%=      5-min Rain = 0
KCES 131410Z 04000KT 10/01 A2995 RMK A01 T00970009  RH  055%=      5-min Rain = 0
KCES 131415Z 17000KT 10/01 A2996 RMK A01 T01010010  RH  054%=      5-min Rain = 0
KCES 131420Z 35001KT 11/01 A2996 RMK A01 T01060012  RH  053%=      5-min Rain = 0
KCES 131425Z 36001KT 11/01 A2996 RMK A01 T01100014  RH  052%=      5-min Rain = 0
KCES 131430Z 05001KT 12/01 A2996 RMK A01 T01150014  RH  051%=      5-min Rain = 0
KCES 131435Z 00000KT 12/02 A2996 RMK A01 T01210015  RH  049%=      5-min Rain = 0
KCES 131440Z 35001KT 13/02 A2996 RMK A01 T01270018  RH  048%=      5-min Rain = 0
KCES 131445Z 10000KT 14/02 A2996 RMK A01 T01360021  RH  047%=      5-min Rain = 0
KCES 131450Z 13001KT 14/02 A2996 RMK A01 T01440018  RH  043%=      5-min Rain = 0
KCES 131455Z 16002KT 15/02 A2996 RMK A01 T01490019  RH  042%=      5-min Rain = 0
KCES 131500Z 13002KT 15/02 A2997 RMK A01 T01500019  RH  042%=      5-min Rain = 0
KCES 131505Z 17002KT 15/02 A2997 RMK A01 T01530020  RH  041%=      5-min Rain = 0
KCES 131510Z 18001KT 16/02 A2997 RMK A01 T01550021  RH  041%=      5-min Rain = 0
KCES 131515Z 18001KT 16/02 A2997 RMK A01 T01570024  RH  041%=      5-min Rain = 0
KCES 131520Z 21003KT 16/03 A2997 RMK A01 T01630026  RH  041%=      5-min Rain = 0
KCES 131525Z 24003KT 16/03 A2997 RMK A01 T01630026  RH  040%=      5-min Rain = 0
KCES 131530Z 27003KT 16/03 A2997 RMK A01 T01610026  RH  041%=      5-min Rain = 0
KCES 131535Z 27002KT 16/03 A2997 RMK A01 T01620026  RH  041%=      5-min Rain = 0
KCES 131540Z 26001KT 17/03 A2997 RMK A01 T01650027  RH  040%=      5-min Rain = 0
KCES 131545Z 19003KT 17/03 A2997 RMK A01 T01690029  RH  040%=      5-min Rain = 0
KCES 131550Z 15001KT 17/03 A2997 RMK A01 T01720027  RH  039%=      5-min Rain = 0
KCES 131555Z 16002KT 18/03 A2997 RMK A01 T01770029  RH  038%=      5-min Rain = 0
KCES 131600Z 20003KT 18/03 A2997 RMK A01 T01780029  RH  038%=      5-min Rain = 0
KCES 131605Z 19002KT 18/03 A2997 RMK A01 T01760027  RH  038%=      5-min Rain = 0
KCES 131610Z 19002KT 18/03 A2997 RMK A01 T01780031  RH  038%=      5-min Rain = 0
KCES 131615Z 20002KT 18/03 A2997 RMK A01 T01810029  RH  037%=      5-min Rain = 0
KCES 131620Z 15004KT 18/03 A2997 RMK A01 T01820031  RH  037%=      5-min Rain = 0
KCES 131625Z 19003KT 18/03 A2997 RMK A01 T01840030  RH  037%=      5-min Rain = 0
KCES 131630Z 24004KT 19/03 A2997 RMK A01 T01860032  RH  037%=      5-min Rain = 0
KCES 131635Z 25004KT 18/03 A2997 RMK A01 T01820029  RH  037%=      5-min Rain = 0
KCES 131640Z 24004KT 18/03 A2997 RMK A01 T01830029  RH  036%=      5-min Rain = 0
KCES 131645Z 25003KT 19/03 A2997 RMK A01 T01860029  RH  036%=      5-min Rain = 0
KCES 131650Z 23003KT 19/03 A2997 RMK A01 T01880030  RH  036%=      5-min Rain = 0
KCES 131655Z 27003KT 19/03 A2997 RMK A01 T01920031  RH  035%=      5-min Rain = 0
KCES 131700Z 29003KT 19/03 A2997 RMK A01 T01910029  RH  035%=      5-min Rain = 0
KCES 131705Z 23001KT 19/03 A2997 RMK A01 T01930028  RH  034%=      5-min Rain = 0
KCES 131710Z 27002KT 20/03 A2997 RMK A01 T01980031  RH  034%=      5-min Rain = 0
KCES 131715Z 26003KT 20/03 A2997 RMK A01 T01960029  RH  034%=      5-min Rain = 0
KCES 131720Z 24002KT 20/03 A2997 RMK A01 T01950028  RH  034%=      5-min Rain = 0
KCES 131725Z 29003KT 20/03 A2996 RMK A01 T01990032  RH  034%=      5-min Rain = 0
KCES 131730Z 31002KT 20/03 A2996 RMK A01 T02010031  RH  033%=      5-min Rain = 0
KCES 131735Z 01002KT 21/03 A2996 RMK A01 T02050034  RH  033%=      5-min Rain = 0
KCES 131740Z 25004KT 21/03 A2996 RMK A01 T02090034  RH  032%=      5-min Rain = 0
KCES 131745Z 22001KT 21/03 A2996 RMK A01 T02100034  RH  032%=      5-min Rain = 0
KCES 131750Z 20002KT 22/04 A2996 RMK A01 T02150035  RH  031%=      5-min Rain = 0
KCES 131755Z 26002KT 22/03 A2995 RMK A01 T02180034  RH  030%=      5-min Rain = 0
KCES 131800Z 32003KT 22/04 A2996 RMK A01 T02190035  RH  030%=      5-min Rain = 0
KCES 131805Z 26002KT 22/04 A2995 RMK A01 T02210037  RH  030%=      5-min Rain = 0
KCES 131810Z 17002KT 23/04 A2995 RMK A01 T02260039  RH  030%=      5-min Rain = 0
KCES 131815Z 12002KT 23/04 A2995 RMK A01 T02250036  RH  030%=      5-min Rain = 0
KCES 131820Z 09002KT 23/04 A2995 RMK A01 T02250039  RH  030%=      5-min Rain = 0
KCES 131825Z 10004KT 23/04 A2995 RMK A01 T02280036  RH  029%=      5-min Rain = 0
KCES 131830Z 06004KT 23/04 A2995 RMK A01 T02290035  RH  029%=      5-min Rain = 0
KCES 131835Z 06002KT 23/03 A2995 RMK A01 T02310034  RH  028%=      5-min Rain = 0
KCES 131840Z 00001KT 23/03 A2995 RMK A01 T02320034  RH  028%=      5-min Rain = 0
KCES 131845Z 31002KT 24/04 A2995 RMK A01 T02370038  RH  028%=      5-min Rain = 0
KCES 131850Z 33003KT 24/04 A2995 RMK A01 T02370038  RH  028%=      5-min Rain = 0
KCES 131855Z 30003KT 24/04 A2995 RMK A01 T02400040  RH  028%=      5-min Rain = 0
KCES 131900Z 23005KT 24/04 A2994 RMK A01 T02440041  RH  027%=      5-min Rain = 0
KCES 131905Z 22004KT 24/04 A2994 RMK A01 T02430041  RH  027%=      5-min Rain = 0
KCES 131910Z 24003KT 24/04 A2994 RMK A01 T02430040  RH  027%=      5-min Rain = 0
KCES 131915Z 24003G8KT 24/04 A2994 RMK A01 T02430038  RH  027%=      5-min Rain = 0
KCES 131920Z 24004KT 24/04 A2994 RMK A01 T02420036  RH  027%=      5-min Rain = 0
KCES 131925Z 22003KT 24/04 A2993 RMK A01 T02430036  RH  026%=      5-min Rain = 0
KCES 131930Z 25003KT 24/03 A2993 RMK A01 T02420033  RH  026%=      5-min Rain = 0
KCES 131935Z 22005KT 24/03 A2993 RMK A01 T02440030  RH  025%=      5-min Rain = 0
KCES 131940Z 24004KT 25/03 A2993 RMK A01 T02460029  RH  025%=      5-min Rain = 0
KCES 131945Z 12001KT 25/03 A2993 RMK A01 T02450029  RH  025%=      5-min Rain = 0
KCES 131950Z 19002G7KT 25/03 A2992 RMK A01 T02500033  RH  025%=      5-min Rain = 0
KCES 131955Z 22005KT 25/03 A2992 RMK A01 T02540033  RH  024%=      5-min Rain = 0
KCES 132000Z 20004KT 25/04 A2992 RMK A01 T02510036  RH  025%=      5-min Rain = 0
KCES 132005Z 24005G10KT 25/03 A2992 RMK A01 T02530030  RH  024%=      5-min Rain = 0
KCES 132010Z 25003KT 25/03 A2991 RMK A01 T02520030  RH  024%=      5-min Rain = 0
KCES 132015Z 20005KT 25/03 A2991 RMK A01 T02530033  RH  025%=      5-min Rain = 0
KCES 132020Z 26005KT 25/03 A2991 RMK A01 T02540032  RH  024%=      5-min Rain = 0
KCES 132025Z 23005G11KT 25/03 A2991 RMK A01 T02540029  RH  024%=      5-min Rain = 0
KCES 132030Z 26005KT 25/03 A2991 RMK A01 T02520033  RH  024%=      5-min Rain = 0
KCES 132035Z 22003KT 26/04 A2991 RMK A01 T02550037  RH  025%=      5-min Rain = 0
KCES 132040Z 24004G9KT 26/04 A2991 RMK A01 T02580039  RH  025%=      5-min Rain = 0
KCES 132045Z 24004KT 26/03 A2991 RMK A01 T02580033  RH  024%=      5-min Rain = 0
KCES 132050Z 24002KT 26/03 A2991 RMK A01 T02570030  RH  023%=      5-min Rain = 0
KCES 132055Z 24003KT 26/03 A2991 RMK A01 T02590032  RH  023%=      5-min Rain = 0
KCES 132100Z 23002KT 26/03 A2991 RMK A01 T02590030  RH  023%=      5-min Rain = 0
KCES 132105Z 28004KT 26/03 A2991 RMK A01 T02630029  RH  022%=      5-min Rain = 0
KCES 132110Z 27004KT 26/03 A2991 RMK A01 T02610029  RH  023%=      5-min Rain = 0
KCES 132115Z 22004KT 26/03 A2991 RMK A01 T02620029  RH  023%=      5-min Rain = 0
KCES 132120Z 20005KT 26/03 A2991 RMK A01 T02620025  RH  022%=      5-min Rain = 0
KCES 132125Z 17003KT 26/02 A2991 RMK A01 T02630024  RH  022%=      5-min Rain = 0
KCES 132130Z 20004KT 26/02 A2991 RMK A01 T02640024  RH  021%=      5-min Rain = 0
KCES 132135Z 22003KT 27/02 A2991 RMK A01 T02650024  RH  021%=      5-min Rain = 0
KCES 132140Z 24002KT 27/02 A2991 RMK A01 T02680024  RH  021%=      5-min Rain = 0
KCES 132145Z 11001KT 27/02 A2991 RMK A01 T02660022  RH  021%=      5-min Rain = 0
KCES 132150Z 24004KT 27/03 A2991 RMK A01 T02670028  RH  022%=      5-min Rain = 0
KCES 132155Z 26002KT 27/02 A2991 RMK A01 T02660022  RH  021%=      5-min Rain = 0
KCES 132200Z 31002KT 27/02 A299 RMK A01 T02660021  RH  021%=      5-min Rain = 0
KCES 132205Z 21002KT 27/03 A299 RMK A01 T02680025  RH  021%=      5-min Rain = 0
KCES 132210Z 17004KT 27/02 A299 RMK A01 T02710024  RH  021%=      5-min Rain = 0
KCES 132215Z 20003KT 27/02 A299 RMK A01 T02710024  RH  021%=      5-min Rain = 0
KCES 132220Z 24003KT 27/02 A299 RMK A01 T02730020  RH  020%=      5-min Rain = 0
KCES 132225Z 24003KT 27/02 A2991 RMK A01 T02730019  RH  020%=      5-min Rain = 0
KCES 132230Z 21004KT 27/02 A2991 RMK A01 T02730022  RH  020%=      5-min Rain = 0
KCES 132235Z 17005KT 27/03 A2991 RMK A01 T02720026  RH  021%=      5-min Rain = 0
KCES 132240Z 17005KT 27/03 A2991 RMK A01 T02700030  RH  022%=      5-min Rain = 0
KCES 132245Z 19005KT 27/03 A2991 RMK A01 T02700030  RH  022%=      5-min Rain = 0
KCES 132250Z 18006KT 27/03 A2991 RMK A01 T02680029  RH  022%=      5-min Rain = 0
KCES 132255Z 19006KT 27/03 A2991 RMK A01 T02660027  RH  022%=      5-min Rain = 0
KCES 132300Z 18006KT 27/03 A2991 RMK A01 T02650031  RH  022%=      5-min Rain = 0
KCES 132305Z 17007KT 27/03 A2991 RMK A01 T02650030  RH  022%=      5-min Rain = 0
KCES 132310Z 17006KT 26/03 A2991 RMK A01 T02630030  RH  022%=      5-min Rain = 0
KCES 132315Z 17006KT 26/03 A2991 RMK A01 T02610030  RH  023%=      5-min Rain = 0
KCES 132320Z 18005KT 26/03 A2991 RMK A01 T02600034  RH  024%=      5-min Rain = 0
KCES 132325Z 18004KT 26/04 A2991 RMK A01 T02580037  RH  024%=      5-min Rain = 0
KCES 132330Z 18003KT 26/04 A2991 RMK A01 T02570042  RH  025%=      5-min Rain = 0
KCES 132335Z 15005KT 25/04 A2992 RMK A01 T02530042  RH  026%=      5-min Rain = 0
KCES 132340Z 15005KT 24/04 A2992 RMK A01 T02440044  RH  028%=      5-min Rain = 0
KCES 132345Z 14005KT 24/05 A2992 RMK A01 T02350046  RH  030%=      5-min Rain = 0
KCES 132350Z 14005KT 23/04 A2992 RMK A01 T02290043  RH  030%=      5-min Rain = 0
KCES 132355Z 14005KT 22/04 A2992 RMK A01 T02230042  RH  031%=      5-min Rain = 0
KCES 140000Z 14006KT 22/04 A2992 RMK A01 T02200041  RH  032%=      5-min Rain = 0
KCES 140005Z 14007KT 21/05 A2992 RMK A01 T02120045  RH  034%=      5-min Rain = 0
KCES 140010Z 15007KT 21/04 A2992 RMK A01 T02070042  RH  035%=      5-min Rain = 0
KCES 140015Z 15007KT 21/04 A2993 RMK A01 T02050041  RH  035%=      5-min Rain = 0
KCES 140020Z 15006KT 21/04 A2993 RMK A01 T02080037  RH  033%=      5-min Rain = 0
KCES 140025Z 15005KT 20/04 A2993 RMK A01 T02040040  RH  035%=      5-min Rain = 0
KCES 140030Z 15006KT 19/04 A2993 RMK A01 T01850043  RH  040%=      5-min Rain = 0
KCES 140035Z 15007KT 18/05 A2993 RMK A01 T01750045  RH  043%=      5-min Rain = 0
KCES 140040Z 14008KT 17/05 A2994 RMK A01 T01670046  RH  045%=      5-min Rain = 0
KCES 140045Z 14008KT 17/05 A2994 RMK A01 T01670045  RH  045%=      5-min Rain = 0
KCES 140050Z 14007KT 17/05 A2994 RMK A01 T01660045  RH  046%=      5-min Rain = 0
KCES 140055Z 14008KT 17/04 A2994 RMK A01 T01690042  RH  044%=      5-min Rain = 0
KCES 140100Z 13007KT 18/04 A2994 RMK A01 T01750040  RH  041%=      5-min Rain = 0
KCES 140105Z 13007KT 18/04 A2994 RMK A01 T01780039  RH  040%=      5-min Rain = 0
KCES 140110Z 13007KT 18/04 A2994 RMK A01 T01790038  RH  040%=      5-min Rain = 0
KCES 140115Z 13007KT 18/04 A2994 RMK A01 T01790037  RH  040%=      5-min Rain = 0
KCES 140120Z 12007KT 18/04 A2995 RMK A01 T01770038  RH  040%=      5-min Rain = 0
KCES 140125Z 13007KT 18/04 A2995 RMK A01 T01750038  RH  041%=      5-min Rain = 0
KCES 140130Z 13008KT 17/04 A2995 RMK A01 T01730038  RH  041%=      5-min Rain = 0
KCES 140135Z 13008KT 18/04 A2995 RMK A01 T01760035  RH  040%=      5-min Rain = 0
KCES 140140Z 13009KT 18/04 A2995 RMK A01 T01760035  RH  040%=      5-min Rain = 0
KCES 140145Z 13008KT 18/03 A2995 RMK A01 T01770034  RH  039%=      5-min Rain = 0
KCES 140150Z 13008KT 18/03 A2995 RMK A01 T01750034  RH  040%=      5-min Rain = 0
KCES 140155Z 13008KT 17/04 A2995 RMK A01 T01720035  RH  041%=      5-min Rain = 0
KCES 140200Z 13009KT 17/04 A2995 RMK A01 T01690035  RH  041%=      5-min Rain = 0
KCES 140205Z 13009KT 17/04 A2995 RMK A01 T01680036  RH  042%=      5-min Rain = 0
KCES 140210Z 13009KT 17/04 A2995 RMK A01 T01660036  RH  043%=      5-min Rain = 0
KCES 140215Z 13009KT 17/04 A2995 RMK A01 T01660036  RH  042%=      5-min Rain = 0
KCES 140220Z 13009KT 17/04 A2995 RMK A01 T01660036  RH  043%=      5-min Rain = 0
KCES 140225Z 13009KT 17/04 A2995 RMK A01 T01650037  RH  043%=      5-min Rain = 0
KCES 140230Z 13008KT 16/04 A2995 RMK A01 T01620037  RH  044%=      5-min Rain = 0
KCES 140235Z 13009KT 16/04 A2995 RMK A01 T01590038  RH  045%=      5-min Rain = 0
KCES 140240Z 13009KT 16/04 A2995 RMK A01 T01630037  RH  044%=      5-min Rain = 0
KCES 140245Z 13009KT 16/04 A2995 RMK A01 T01640037  RH  043%=      5-min Rain = 0
KCES 140250Z 13009KT 16/04 A2995 RMK A01 T01640038  RH  044%=      5-min Rain = 0
KCES 140255Z 12008KT 16/04 A2995 RMK A01 T01600039  RH  045%=      5-min Rain = 0
KCES 140300Z 12008KT 16/04 A2995 RMK A01 T01570040  RH  047%=      5-min Rain = 0
KCES 140305Z 12008KT 15/04 A2995 RMK A01 T01540041  RH  048%=      5-min Rain = 0
KCES 140310Z 12007KT 15/04 A2996 RMK A01 T01500042  RH  049%=      5-min Rain = 0
KCES 140315Z 11005KT 15/04 A2996 RMK A01 T01490041  RH  049%=      5-min Rain = 0
KCES 140320Z 11005KT 15/04 A2996 RMK A01 T01480042  RH  050%=      5-min Rain = 0
KCES 140325Z 11005KT 15/04 A2996 RMK A01 T01490041  RH  049%=      5-min Rain = 0
KCES 140330Z 10004KT 15/04 A2996 RMK A01 T01510042  RH  049%=      5-min Rain = 0
KCES 140335Z 02002KT 14/04 A2996 RMK A01 T01370044  RH  054%=      5-min Rain = 0
KCES 140340Z 35003KT 13/04 A2996 RMK A01 T01270044  RH  058%=      5-min Rain = 0
KCES 140345Z 01002KT 13/04 A2996 RMK A01 T01300043  RH  057%=      5-min Rain = 0
KCES 140350Z 03004KT 14/04 A2996 RMK A01 T01380043  RH  054%=      5-min Rain = 0
KCES 140355Z 03004KT 14/04 A2996 RMK A01 T01390044  RH  054%=      5-min Rain = 0
KCES 140400Z 02003KT 14/04 A2996 RMK A01 T01370044  RH  055%=      5-min Rain = 0
KCES 140405Z 01003KT 13/05 A2995 RMK A01 T01310046  RH  057%=      5-min Rain = 0
KCES 140410Z 01002KT 12/05 A2995 RMK A01 T01220045  RH  061%=      5-min Rain = 0
KCES 140415Z 34002KT 12/05 A2996 RMK A01 T01170045  RH  063%=      5-min Rain = 0
KCES 140420Z 02003KT 12/05 A2995 RMK A01 T01170045  RH  063%=      5-min Rain = 0
KCES 140425Z 03002KT 12/05 A2995 RMK A01 T01190046  RH  062%=      5-min Rain = 0
KCES 140430Z 03002KT 12/05 A2995 RMK A01 T01200046  RH  062%=      5-min Rain = 0
KCES 140435Z 02001KT 12/05 A2995 RMK A01 T01150046  RH  064%=      5-min Rain = 0
KCES 140440Z 01002KT 11/05 A2995 RMK A01 T01080045  RH  067%=      5-min Rain = 0
KCES 140445Z 00002KT 11/05 A2995 RMK A01 T01070045  RH  067%=      5-min Rain = 0
KCES 140450Z 00000KT 11/05 A2995 RMK A01 T01060046  RH  068%=      5-min Rain = 0
KCES 140455Z 05002KT 11/05 A2995 RMK A01 T01100047  RH  066%=      5-min Rain = 0

Page generated in 0.0195 seconds.